sensor_id;sensor_type;location;lat;lon;timestamp;temperature;humidity
25328;DHT22;13279;51.300;12.394;2022-10-31T00:01:01;13.30;99.90
25328;DHT22;13279;51.300;12.394;2022-10-31T00:03:29;13.30;99.90
25328;DHT22;13279;51.300;12.394;2022-10-31T00:05:56;13.30;99.90
25328;DHT22;13279;51.300;12.394;2022-10-31T00:08:24;13.30;99.90
25328;DHT22;13279;51.300;12.394;2022-10-31T00:10:51;13.20;99.90
25328;DHT22;13279;51.300;12.394;2022-10-31T00:13:19;13.20;99.90
25328;DHT22;13279;51.300;12.394;2022-10-31T00:15:47;13.20;99.90
25328;DHT22;13279;51.300;12.394;2022-10-31T00:18:15;13.20;99.90
25328;DHT22;13279;51.300;12.394;2022-10-31T00:20:42;13.10;99.90
25328;DHT22;13279;51.300;12.394;2022-10-31T00:23:10;13.10;99.90
25328;DHT22;13279;51.300;12.394;2022-10-31T00:25:39;13.10;99.90
25328;DHT22;13279;51.300;12.394;2022-10-31T00:28:07;13.10;99.90
25328;DHT22;13279;51.300;12.394;2022-10-31T00:30:36;13.00;99.90
25328;DHT22;13279;51.300;12.394;2022-10-31T00:33:05;13.00;99.90
25328;DHT22;13279;51.300;12.394;2022-10-31T00:35:32;12.90;99.90
25328;DHT22;13279;51.300;12.394;2022-10-31T00:37:59;12.80;99.90
25328;DHT22;13279;51.300;12.394;2022-10-31T00:40:27;12.70;99.90
25328;DHT22;13279;51.300;12.394;2022-10-31T00:42:55;12.70;99.90
25328;DHT22;13279;51.300;12.394;2022-10-31T00:45:22;12.70;99.90
25328;DHT22;13279;51.300;12.394;2022-10-31T00:47:50;12.70;99.90
25328;DHT22;13279;51.300;12.394;2022-10-31T00:50:19;12.70;99.90
25328;DHT22;13279;51.300;12.394;2022-10-31T00:52:46;12.60;99.90
25328;DHT22;13279;51.300;12.394;2022-10-31T00:55:14;12.60;99.90
25328;DHT22;13279;51.300;12.394;2022-10-31T00:57:42;12.60;99.90
25328;DHT22;13279;51.300;12.394;2022-10-31T01:00:11;12.60;99.90
25328;DHT22;13279;51.300;12.394;2022-10-31T01:02:40;12.60;99.90
25328;DHT22;13279;51.300;12.394;2022-10-31T01:05:07;12.60;99.90
25328;DHT22;13279;51.300;12.394;2022-10-31T01:07:39;12.60;99.90
25328;DHT22;13279;51.300;12.394;2022-10-31T01:10:10;12.50;99.90
25328;DHT22;13279;51.300;12.394;2022-10-31T01:12:37;12.50;99.90
25328;DHT22;13279;51.300;12.394;2022-10-31T01:15:06;12.50;99.90
25328;DHT22;13279;51.300;12.394;2022-10-31T01:17:34;12.50;99.90
25328;DHT22;13279;51.300;12.394;2022-10-31T01:20:02;12.40;99.90
25328;DHT22;13279;51.300;12.394;2022-10-31T01:22:31;12.50;99.90
25328;DHT22;13279;51.300;12.394;2022-10-31T01:25:01;12.40;99.90
25328;DHT22;13279;51.300;12.394;2022-10-31T01:27:28;12.40;99.90
25328;DHT22;13279;51.300;12.394;2022-10-31T01:29:56;12.40;99.90
25328;DHT22;13279;51.300;12.394;2022-10-31T01:32:23;12.40;99.90
25328;DHT22;13279;51.300;12.394;2022-10-31T01:34:51;12.40;99.90
25328;DHT22;13279;51.300;12.394;2022-10-31T01:37:18;12.40;99.90
25328;DHT22;13279;51.300;12.394;2022-10-31T01:39:48;12.50;99.90
25328;DHT22;13279;51.300;12.394;2022-10-31T01:42:19;12.40;99.90
25328;DHT22;13279;51.300;12.394;2022-10-31T01:44:56;12.40;99.90
25328;DHT22;13279;51.300;12.394;2022-10-31T01:47:34;12.40;99.90
25328;DHT22;13279;51.300;12.394;2022-10-31T01:50:10;12.40;99.90
25328;DHT22;13279;51.300;12.394;2022-10-31T01:52:41;12.40;99.90
25328;DHT22;13279;51.300;12.394;2022-10-31T01:55:13;12.40;99.90
25328;DHT22;13279;51.300;12.394;2022-10-31T01:57:46;12.40;99.90
25328;DHT22;13279;51.300;12.394;2022-10-31T02:00:17;12.40;99.90
25328;DHT22;13279;51.300;12.394;2022-10-31T02:02:46;12.30;99.90
25328;DHT22;13279;51.300;12.394;2022-10-31T02:05:19;12.30;99.90
25328;DHT22;13279;51.300;12.394;2022-10-31T02:07:53;12.30;99.90
25328;DHT22;13279;51.300;12.394;2022-10-31T02:10:27;12.30;99.90
25328;DHT22;13279;51.300;12.394;2022-10-31T02:12:58;12.30;99.90
25328;DHT22;13279;51.300;12.394;2022-10-31T02:15:29;12.30;99.90
25328;DHT22;13279;51.300;12.394;2022-10-31T02:17:56;12.30;99.90
25328;DHT22;13279;51.300;12.394;2022-10-31T02:20:27;12.30;99.90
25328;DHT22;13279;51.300;12.394;2022-10-31T02:23:20;12.20;99.90
25328;DHT22;13279;51.300;12.394;2022-10-31T02:29:05;12.30;99.90
25328;DHT22;13279;51.300;12.394;2022-10-31T02:31:39;12.30;99.90
25328;DHT22;13279;51.300;12.394;2022-10-31T02:34:16;12.30;99.90
25328;DHT22;13279;51.300;12.394;2022-10-31T02:36:52;12.30;99.90
25328;DHT22;13279;51.300;12.394;2022-10-31T02:39:24;12.30;99.90
25328;DHT22;13279;51.300;12.394;2022-10-31T02:41:58;12.30;99.90
25328;DHT22;13279;51.300;12.394;2022-10-31T02:44:32;12.30;99.90
25328;DHT22;13279;51.300;12.394;2022-10-31T02:47:06;12.20;99.90
25328;DHT22;13279;51.300;12.394;2022-10-31T02:49:39;12.20;99.90
25328;DHT22;13279;51.300;12.394;2022-10-31T02:52:18;12.20;99.90
25328;DHT22;13279;51.300;12.394;2022-10-31T02:54:46;12.10;99.90
25328;DHT22;13279;51.300;12.394;2022-10-31T02:57:16;12.10;99.90
25328;DHT22;13279;51.300;12.394;2022-10-31T02:59:47;12.10;99.90
25328;DHT22;13279;51.300;12.394;2022-10-31T03:02:44;12.10;99.90
25328;DHT22;13279;51.300;12.394;2022-10-31T03:05:28;12.00;99.90
25328;DHT22;13279;51.300;12.394;2022-10-31T03:08:04;12.00;99.90
25328;DHT22;13279;51.300;12.394;2022-10-31T03:10:37;12.00;99.90
25328;DHT22;13279;51.300;12.394;2022-10-31T03:13:10;11.90;99.90
25328;DHT22;13279;51.300;12.394;2022-10-31T03:15:42;11.90;99.90
25328;DHT22;13279;51.300;12.394;2022-10-31T03:18:15;11.90;99.90
25328;DHT22;13279;51.300;12.394;2022-10-31T03:20:47;11.80;99.90
25328;DHT22;13279;51.300;12.394;2022-10-31T03:23:18;11.80;99.90
25328;DHT22;13279;51.300;12.394;2022-10-31T03:25:51;11.80;99.90
25328;DHT22;13279;51.300;12.394;2022-10-31T03:28:29;11.70;99.90
25328;DHT22;13279;51.300;12.394;2022-10-31T03:30:58;11.70;99.90
25328;DHT22;13279;51.300;12.394;2022-10-31T03:33:33;11.60;99.90
25328;DHT22;13279;51.300;12.394;2022-10-31T03:36:04;11.60;99.90
25328;DHT22;13279;51.300;12.394;2022-10-31T03:38:34;11.60;99.90
25328;DHT22;13279;51.300;12.394;2022-10-31T03:41:05;11.60;99.90
25328;DHT22;13279;51.300;12.394;2022-10-31T03:43:40;11.60;99.90
25328;DHT22;13279;51.300;12.394;2022-10-31T03:46:09;11.60;99.90
25328;DHT22;13279;51.300;12.394;2022-10-31T03:48:38;11.60;99.90
25328;DHT22;13279;51.300;12.394;2022-10-31T03:51:09;11.60;99.90
25328;DHT22;13279;51.300;12.394;2022-10-31T03:53:42;11.50;99.90
25328;DHT22;13279;51.300;12.394;2022-10-31T03:56:19;11.50;99.90
25328;DHT22;13279;51.300;12.394;2022-10-31T03:58:55;11.50;99.90
25328;DHT22;13279;51.300;12.394;2022-10-31T04:01:28;11.60;99.90
25328;DHT22;13279;51.300;12.394;2022-10-31T04:04:00;11.50;99.90
25328;DHT22;13279;51.300;12.394;2022-10-31T04:06:30;11.40;99.90
25328;DHT22;13279;51.300;12.394;2022-10-31T04:09:02;11.40;99.90
25328;DHT22;13279;51.300;12.394;2022-10-31T04:11:32;11.40;99.90
25328;DHT22;13279;51.300;12.394;2022-10-31T04:14:26;11.40;99.90
25328;DHT22;13279;51.300;12.394;2022-10-31T04:16:55;11.40;99.90
25328;DHT22;13279;51.300;12.394;2022-10-31T04:19:34;11.50;99.90
25328;DHT22;13279;51.300;12.394;2022-10-31T04:22:01;11.40;99.90
25328;DHT22;13279;51.300;12.394;2022-10-31T04:24:29;11.40;99.90
25328;DHT22;13279;51.300;12.394;2022-10-31T04:26:57;11.30;99.90
25328;DHT22;13279;51.300;12.394;2022-10-31T04:29:26;11.30;99.90
25328;DHT22;13279;51.300;12.394;2022-10-31T04:31:53;11.30;99.90
25328;DHT22;13279;51.300;12.394;2022-10-31T04:34:21;11.30;99.90
25328;DHT22;13279;51.300;12.394;2022-10-31T04:36:51;11.30;99.90
25328;DHT22;13279;51.300;12.394;2022-10-31T04:39:18;11.30;99.90
25328;DHT22;13279;51.300;12.394;2022-10-31T04:42:06;11.30;99.90
25328;DHT22;13279;51.300;12.394;2022-10-31T04:44:33;11.30;99.90
25328;DHT22;13279;51.300;12.394;2022-10-31T04:47:02;11.30;99.90
25328;DHT22;13279;51.300;12.394;2022-10-31T04:49:30;11.30;99.90
25328;DHT22;13279;51.300;12.394;2022-10-31T04:52:00;11.30;99.90
25328;DHT22;13279;51.300;12.394;2022-10-31T04:54:27;11.30;99.90
25328;DHT22;13279;51.300;12.394;2022-10-31T04:57:24;11.30;99.90
25328;DHT22;13279;51.300;12.394;2022-10-31T04:59:51;11.30;99.90
25328;DHT22;13279;51.300;12.394;2022-10-31T05:02:19;11.20;99.90
25328;DHT22;13279;51.300;12.394;2022-10-31T05:04:53;11.30;99.90
25328;DHT22;13279;51.300;12.394;2022-10-31T05:07:22;11.20;99.90
25328;DHT22;13279;51.300;12.394;2022-10-31T05:09:50;11.20;99.90
25328;DHT22;13279;51.300;12.394;2022-10-31T05:12:19;11.10;99.90
25328;DHT22;13279;51.300;12.394;2022-10-31T05:15:05;11.10;99.90
25328;DHT22;13279;51.300;12.394;2022-10-31T05:17:53;11.00;99.90
25328;DHT22;13279;51.300;12.394;2022-10-31T05:20:56;11.00;99.90
25328;DHT22;13279;51.300;12.394;2022-10-31T05:23:29;11.00;99.90
25328;DHT22;13279;51.300;12.394;2022-10-31T05:25:57;10.90;99.90
25328;DHT22;13279;51.300;12.394;2022-10-31T05:28:24;10.90;99.90
25328;DHT22;13279;51.300;12.394;2022-10-31T05:30:53;10.80;99.90
25328;DHT22;13279;51.300;12.394;2022-10-31T05:33:21;10.80;99.90
25328;DHT22;13279;51.300;12.394;2022-10-31T05:36:07;10.80;99.90
25328;DHT22;13279;51.300;12.394;2022-10-31T05:38:59;10.70;99.90
25328;DHT22;13279;51.300;12.394;2022-10-31T05:41:49;10.80;99.90
25328;DHT22;13279;51.300;12.394;2022-10-31T05:44:24;10.80;99.90
25328;DHT22;13279;51.300;12.394;2022-10-31T05:47:12;10.80;99.90
25328;DHT22;13279;51.300;12.394;2022-10-31T05:50:03;10.70;99.90
25328;DHT22;13279;51.300;12.394;2022-10-31T05:52:45;10.70;99.90
25328;DHT22;13279;51.300;12.394;2022-10-31T05:55:22;10.60;99.90
25328;DHT22;13279;51.300;12.394;2022-10-31T05:58:16;10.60;99.90
25328;DHT22;13279;51.300;12.394;2022-10-31T06:00:58;10.50;99.90
25328;DHT22;13279;51.300;12.394;2022-10-31T06:03:26;10.40;99.90
25328;DHT22;13279;51.300;12.394;2022-10-31T06:05:57;10.40;99.90
25328;DHT22;13279;51.300;12.394;2022-10-31T06:08:30;10.30;99.90
25328;DHT22;13279;51.300;12.394;2022-10-31T06:11:03;10.20;99.90
25328;DHT22;13279;51.300;12.394;2022-10-31T06:13:50;10.20;99.90
25328;DHT22;13279;51.300;12.394;2022-10-31T06:16:31;10.20;99.90
25328;DHT22;13279;51.300;12.394;2022-10-31T06:19:10;10.20;99.90
25328;DHT22;13279;51.300;12.394;2022-10-31T06:21:38;10.30;99.90
25328;DHT22;13279;51.300;12.394;2022-10-31T06:24:05;10.30;99.90
25328;DHT22;13279;51.300;12.394;2022-10-31T06:27:03;10.30;99.90
25328;DHT22;13279;51.300;12.394;2022-10-31T06:29:32;10.40;99.90
25328;DHT22;13279;51.300;12.394;2022-10-31T06:32:10;10.40;99.90
25328;DHT22;13279;51.300;12.394;2022-10-31T06:34:42;10.50;99.90
25328;DHT22;13279;51.300;12.394;2022-10-31T06:37:11;10.50;99.90
25328;DHT22;13279;51.300;12.394;2022-10-31T06:39:41;10.60;99.90
25328;DHT22;13279;51.300;12.394;2022-10-31T06:42:12;10.70;99.90
25328;DHT22;13279;51.300;12.394;2022-10-31T06:44:39;10.70;99.90
25328;DHT22;13279;51.300;12.394;2022-10-31T06:47:50;10.80;99.90
25328;DHT22;13279;51.300;12.394;2022-10-31T06:50:25;10.80;99.90
25328;DHT22;13279;51.300;12.394;2022-10-31T06:52:53;10.80;99.90
25328;DHT22;13279;51.300;12.394;2022-10-31T06:55:21;10.90;99.90
25328;DHT22;13279;51.300;12.394;2022-10-31T06:57:52;10.90;99.90
25328;DHT22;13279;51.300;12.394;2022-10-31T07:00:20;10.90;99.90
25328;DHT22;13279;51.300;12.394;2022-10-31T07:02:55;10.90;99.90
25328;DHT22;13279;51.300;12.394;2022-10-31T07:05:24;11.00;99.90
25328;DHT22;13279;51.300;12.394;2022-10-31T07:07:52;11.10;99.90
25328;DHT22;13279;51.300;12.394;2022-10-31T07:10:21;11.20;99.90
25328;DHT22;13279;51.300;12.394;2022-10-31T07:12:58;11.40;99.90
25328;DHT22;13279;51.300;12.394;2022-10-31T07:15:27;11.60;99.90
25328;DHT22;13279;51.300;12.394;2022-10-31T07:18:00;11.80;99.90
25328;DHT22;13279;51.300;12.394;2022-10-31T07:20:28;11.90;99.90
25328;DHT22;13279;51.300;12.394;2022-10-31T07:22:55;12.10;99.90
25328;DHT22;13279;51.300;12.394;2022-10-31T07:25:24;12.20;99.90
25328;DHT22;13279;51.300;12.394;2022-10-31T07:28:13;12.40;99.90
25328;DHT22;13279;51.300;12.394;2022-10-31T07:30:49;12.60;99.90
25328;DHT22;13279;51.300;12.394;2022-10-31T07:33:19;12.80;99.90
25328;DHT22;13279;51.300;12.394;2022-10-31T07:36:06;13.20;99.90
25328;DHT22;13279;51.300;12.394;2022-10-31T07:38:34;13.40;99.90
25328;DHT22;13279;51.300;12.394;2022-10-31T07:41:04;13.60;99.90
25328;DHT22;13279;51.300;12.394;2022-10-31T07:43:38;13.80;99.90
25328;DHT22;13279;51.300;12.394;2022-10-31T07:46:29;13.90;99.90
25328;DHT22;13279;51.300;12.394;2022-10-31T07:49:31;14.10;99.90
25328;DHT22;13279;51.300;12.394;2022-10-31T07:52:28;14.20;99.90
25328;DHT22;13279;51.300;12.394;2022-10-31T07:55:34;14.30;99.90
25328;DHT22;13279;51.300;12.394;2022-10-31T07:58:04;14.40;99.90
25328;DHT22;13279;51.300;12.394;2022-10-31T08:00:36;14.60;99.90
25328;DHT22;13279;51.300;12.394;2022-10-31T08:03:06;14.70;99.90
25328;DHT22;13279;51.300;12.394;2022-10-31T08:05:52;14.80;99.90
25328;DHT22;13279;51.300;12.394;2022-10-31T08:08:45;14.90;99.90
25328;DHT22;13279;51.300;12.394;2022-10-31T08:11:12;15.00;99.90
25328;DHT22;13279;51.300;12.394;2022-10-31T08:13:42;15.20;99.90
25328;DHT22;13279;51.300;12.394;2022-10-31T08:16:15;15.40;99.90
25328;DHT22;13279;51.300;12.394;2022-10-31T08:18:51;15.50;99.90
25328;DHT22;13279;51.300;12.394;2022-10-31T08:21:19;15.60;99.90
25328;DHT22;13279;51.300;12.394;2022-10-31T08:23:47;15.80;99.90
25328;DHT22;13279;51.300;12.394;2022-10-31T08:26:14;15.70;99.90
25328;DHT22;13279;51.300;12.394;2022-10-31T08:28:43;15.90;99.90
25328;DHT22;13279;51.300;12.394;2022-10-31T08:31:10;16.20;99.90
25328;DHT22;13279;51.300;12.394;2022-10-31T08:34:02;16.30;99.90
25328;DHT22;13279;51.300;12.394;2022-10-31T08:37:02;16.30;99.90
25328;DHT22;13279;51.300;12.394;2022-10-31T08:39:38;16.40;99.90
25328;DHT22;13279;51.300;12.394;2022-10-31T08:42:06;16.50;99.90
25328;DHT22;13279;51.300;12.394;2022-10-31T08:44:33;16.50;99.90
25328;DHT22;13279;51.300;12.394;2022-10-31T08:47:03;16.60;99.90
25328;DHT22;13279;51.300;12.394;2022-10-31T08:49:34;16.80;99.90
25328;DHT22;13279;51.300;12.394;2022-10-31T08:52:02;16.80;99.90
25328;DHT22;13279;51.300;12.394;2022-10-31T08:54:34;16.80;99.90
25328;DHT22;13279;51.300;12.394;2022-10-31T08:57:31;17.00;99.90
25328;DHT22;13279;51.300;12.394;2022-10-31T08:59:59;16.90;99.90
25328;DHT22;13279;51.300;12.394;2022-10-31T09:02:47;16.80;99.90
25328;DHT22;13279;51.300;12.394;2022-10-31T09:05:15;16.80;99.90
25328;DHT22;13279;51.300;12.394;2022-10-31T09:07:43;16.70;99.90
25328;DHT22;13279;51.300;12.394;2022-10-31T09:10:10;16.80;99.90
25328;DHT22;13279;51.300;12.394;2022-10-31T09:12:38;17.00;99.90
25328;DHT22;13279;51.300;12.394;2022-10-31T09:15:28;17.10;99.90
25328;DHT22;13279;51.300;12.394;2022-10-31T09:18:09;17.20;99.90
25328;DHT22;13279;51.300;12.394;2022-10-31T09:20:46;17.40;99.90
25328;DHT22;13279;51.300;12.394;2022-10-31T09:23:16;17.60;99.90
25328;DHT22;13279;51.300;12.394;2022-10-31T09:25:44;17.50;99.90
25328;DHT22;13279;51.300;12.394;2022-10-31T09:28:32;17.50;99.90
25328;DHT22;13279;51.300;12.394;2022-10-31T09:31:12;17.70;99.90
25328;DHT22;13279;51.300;12.394;2022-10-31T09:33:46;17.70;99.90
25328;DHT22;13279;51.300;12.394;2022-10-31T09:36:44;17.80;99.90
25328;DHT22;13279;51.300;12.394;2022-10-31T09:39:20;18.10;99.90
25328;DHT22;13279;51.300;12.394;2022-10-31T09:42:14;18.20;99.90
25328;DHT22;13279;51.300;12.394;2022-10-31T09:44:51;18.50;99.90
25328;DHT22;13279;51.300;12.394;2022-10-31T09:47:35;18.60;99.90
25328;DHT22;13279;51.300;12.394;2022-10-31T09:50:25;18.70;99.90
25328;DHT22;13279;51.300;12.394;2022-10-31T09:53:00;18.50;99.90
25328;DHT22;13279;51.300;12.394;2022-10-31T09:55:35;18.50;99.90
25328;DHT22;13279;51.300;12.394;2022-10-31T09:58:05;18.70;99.90
25328;DHT22;13279;51.300;12.394;2022-10-31T10:00:32;18.70;99.90
25328;DHT22;13279;51.300;12.394;2022-10-31T10:03:05;18.80;99.90
25328;DHT22;13279;51.300;12.394;2022-10-31T10:05:41;18.70;99.90
25328;DHT22;13279;51.300;12.394;2022-10-31T10:08:25;18.80;99.90
25328;DHT22;13279;51.300;12.394;2022-10-31T10:10:58;18.70;99.90
25328;DHT22;13279;51.300;12.394;2022-10-31T10:14:04;18.70;99.90
25328;DHT22;13279;51.300;12.394;2022-10-31T10:16:47;18.50;99.90
25328;DHT22;13279;51.300;12.394;2022-10-31T10:22:12;18.50;99.90
25328;DHT22;13279;51.300;12.394;2022-10-31T10:24:55;18.60;99.90
25328;DHT22;13279;51.300;12.394;2022-10-31T10:27:36;18.90;99.90
25328;DHT22;13279;51.300;12.394;2022-10-31T10:30:13;19.20;99.90
25328;DHT22;13279;51.300;12.394;2022-10-31T10:32:44;19.40;99.90
25328;DHT22;13279;51.300;12.394;2022-10-31T10:35:20;19.40;99.90
25328;DHT22;13279;51.300;12.394;2022-10-31T10:37:52;19.30;99.90
25328;DHT22;13279;51.300;12.394;2022-10-31T10:40:24;19.20;99.90
25328;DHT22;13279;51.300;12.394;2022-10-31T10:42:59;19.20;99.90
25328;DHT22;13279;51.300;12.394;2022-10-31T10:46:17;19.00;99.90
25328;DHT22;13279;51.300;12.394;2022-10-31T10:49:10;18.90;99.90
25328;DHT22;13279;51.300;12.394;2022-10-31T10:51:42;19.00;99.90
25328;DHT22;13279;51.300;12.394;2022-10-31T10:54:36;18.90;99.90
25328;DHT22;13279;51.300;12.394;2022-10-31T10:57:16;19.10;99.90
25328;DHT22;13279;51.300;12.394;2022-10-31T10:59:47;19.50;99.90
25328;DHT22;13279;51.300;12.394;2022-10-31T11:02:18;19.80;99.90
25328;DHT22;13279;51.300;12.394;2022-10-31T11:04:50;20.00;99.90
25328;DHT22;13279;51.300;12.394;2022-10-31T11:07:18;20.20;99.90
25328;DHT22;13279;51.300;12.394;2022-10-31T11:09:45;20.30;99.90
25328;DHT22;13279;51.300;12.394;2022-10-31T11:12:21;20.10;99.90
25328;DHT22;13279;51.300;12.394;2022-10-31T11:14:52;20.00;99.90
25328;DHT22;13279;51.300;12.394;2022-10-31T11:17:27;20.20;99.90
25328;DHT22;13279;51.300;12.394;2022-10-31T11:20:16;20.20;99.90
25328;DHT22;13279;51.300;12.394;2022-10-31T11:22:49;20.00;99.90
25328;DHT22;13279;51.300;12.394;2022-10-31T11:25:27;20.10;99.90
25328;DHT22;13279;51.300;12.394;2022-10-31T11:28:04;19.80;99.90
25328;DHT22;13279;51.300;12.394;2022-10-31T11:30:42;19.70;99.90
25328;DHT22;13279;51.300;12.394;2022-10-31T11:33:18;19.70;99.90
25328;DHT22;13279;51.300;12.394;2022-10-31T11:35:47;19.60;99.90
25328;DHT22;13279;51.300;12.394;2022-10-31T11:38:18;19.50;99.90
25328;DHT22;13279;51.300;12.394;2022-10-31T11:40:54;19.40;99.90
25328;DHT22;13279;51.300;12.394;2022-10-31T11:43:25;19.30;99.90
25328;DHT22;13279;51.300;12.394;2022-10-31T11:45:53;19.40;99.90
25328;DHT22;13279;51.300;12.394;2022-10-31T11:48:23;19.60;99.90
25328;DHT22;13279;51.300;12.394;2022-10-31T11:50:53;19.70;99.90
25328;DHT22;13279;51.300;12.394;2022-10-31T11:53:25;19.80;99.90
25328;DHT22;13279;51.300;12.394;2022-10-31T11:56:05;19.80;99.90
25328;DHT22;13279;51.300;12.394;2022-10-31T11:58:35;20.00;99.90
25328;DHT22;13279;51.300;12.394;2022-10-31T12:01:02;19.90;1.00
25328;DHT22;13279;51.300;12.394;2022-10-31T12:03:47;19.80;1.00
25328;DHT22;13279;51.300;12.394;2022-10-31T12:06:22;19.90;1.00
25328;DHT22;13279;51.300;12.394;2022-10-31T12:08:50;19.90;1.00
25328;DHT22;13279;51.300;12.394;2022-10-31T12:11:32;19.90;1.00
25328;DHT22;13279;51.300;12.394;2022-10-31T12:14:12;19.90;1.00
25328;DHT22;13279;51.300;12.394;2022-10-31T12:16:48;19.90;1.00
25328;DHT22;13279;51.300;12.394;2022-10-31T12:19:24;19.90;1.00
25328;DHT22;13279;51.300;12.394;2022-10-31T12:22:03;20.00;1.00
25328;DHT22;13279;51.300;12.394;2022-10-31T12:24:45;20.30;1.00
25328;DHT22;13279;51.300;12.394;2022-10-31T12:27:23;20.50;1.00
25328;DHT22;13279;51.300;12.394;2022-10-31T12:30:09;20.90;1.00
25328;DHT22;13279;51.300;12.394;2022-10-31T12:32:54;21.20;1.00
25328;DHT22;13279;51.300;12.394;2022-10-31T12:35:40;21.30;1.00
25328;DHT22;13279;51.300;12.394;2022-10-31T12:38:37;21.50;99.90
25328;DHT22;13279;51.300;12.394;2022-10-31T12:41:16;21.30;99.90
25328;DHT22;13279;51.300;12.394;2022-10-31T12:43:50;20.80;99.90
25328;DHT22;13279;51.300;12.394;2022-10-31T12:46:29;20.90;99.90
25328;DHT22;13279;51.300;12.394;2022-10-31T12:49:14;21.10;99.90
25328;DHT22;13279;51.300;12.394;2022-10-31T12:51:52;21.30;99.90
25328;DHT22;13279;51.300;12.394;2022-10-31T12:54:42;21.30;99.90
25328;DHT22;13279;51.300;12.394;2022-10-31T12:57:22;21.40;99.90
25328;DHT22;13279;51.300;12.394;2022-10-31T12:59:53;21.50;99.90
25328;DHT22;13279;51.300;12.394;2022-10-31T13:02:29;21.40;99.90
25328;DHT22;13279;51.300;12.394;2022-10-31T13:05:02;21.10;99.90
25328;DHT22;13279;51.300;12.394;2022-10-31T13:07:35;20.80;99.90
25328;DHT22;13279;51.300;12.394;2022-10-31T13:10:10;20.60;99.90
25328;DHT22;13279;51.300;12.394;2022-10-31T13:12:43;20.30;1.00
25328;DHT22;13279;51.300;12.394;2022-10-31T13:15:16;20.10;1.00
25328;DHT22;13279;51.300;12.394;2022-10-31T13:17:49;20.00;1.00
25328;DHT22;13279;51.300;12.394;2022-10-31T13:20:24;19.90;1.00
25328;DHT22;13279;51.300;12.394;2022-10-31T13:22:56;19.90;1.00
25328;DHT22;13279;51.300;12.394;2022-10-31T13:25:30;19.80;1.00
25328;DHT22;13279;51.300;12.394;2022-10-31T13:28:00;19.90;1.00
25328;DHT22;13279;51.300;12.394;2022-10-31T13:30:32;19.80;1.00
25328;DHT22;13279;51.300;12.394;2022-10-31T13:33:06;19.70;1.00
25328;DHT22;13279;51.300;12.394;2022-10-31T13:35:41;19.80;1.00
25328;DHT22;13279;51.300;12.394;2022-10-31T13:38:17;19.90;1.00
25328;DHT22;13279;51.300;12.394;2022-10-31T13:40:52;20.00;1.00
25328;DHT22;13279;51.300;12.394;2022-10-31T13:43:31;19.90;1.00
25328;DHT22;13279;51.300;12.394;2022-10-31T13:46:00;19.80;1.00
25328;DHT22;13279;51.300;12.394;2022-10-31T13:48:37;19.80;1.00
25328;DHT22;13279;51.300;12.394;2022-10-31T13:51:09;19.80;1.00
25328;DHT22;13279;51.300;12.394;2022-10-31T13:53:39;19.60;1.00
25328;DHT22;13279;51.300;12.394;2022-10-31T13:56:18;19.50;1.00
25328;DHT22;13279;51.300;12.394;2022-10-31T13:59:17;19.30;1.00
25328;DHT22;13279;51.300;12.394;2022-10-31T14:01:51;19.30;1.00
25328;DHT22;13279;51.300;12.394;2022-10-31T14:04:23;19.30;1.00
25328;DHT22;13279;51.300;12.394;2022-10-31T14:07:11;19.30;1.00
25328;DHT22;13279;51.300;12.394;2022-10-31T14:09:48;19.30;1.00
25328;DHT22;13279;51.300;12.394;2022-10-31T14:12:25;19.30;1.00
25328;DHT22;13279;51.300;12.394;2022-10-31T14:14:56;19.30;1.00
25328;DHT22;13279;51.300;12.394;2022-10-31T14:17:29;19.30;1.00
25328;DHT22;13279;51.300;12.394;2022-10-31T14:20:26;19.20;1.00
25328;DHT22;13279;51.300;12.394;2022-10-31T14:22:58;19.20;1.00
25328;DHT22;13279;51.300;12.394;2022-10-31T14:25:28;19.10;1.00
25328;DHT22;13279;51.300;12.394;2022-10-31T14:27:57;18.90;1.00
25328;DHT22;13279;51.300;12.394;2022-10-31T14:30:26;18.70;1.00
25328;DHT22;13279;51.300;12.394;2022-10-31T14:32:57;18.50;20.10
25328;DHT22;13279;51.300;12.394;2022-10-31T14:35:37;18.40;99.90
25328;DHT22;13279;51.300;12.394;2022-10-31T14:38:26;18.30;99.90
25328;DHT22;13279;51.300;12.394;2022-10-31T14:41:14;18.10;99.90
25328;DHT22;13279;51.300;12.394;2022-10-31T14:44:00;18.00;99.90
25328;DHT22;13279;51.300;12.394;2022-10-31T14:46:41;17.90;99.90
25328;DHT22;13279;51.300;12.394;2022-10-31T14:49:25;17.90;99.90
25328;DHT22;13279;51.300;12.394;2022-10-31T14:51:57;17.80;99.90
25328;DHT22;13279;51.300;12.394;2022-10-31T14:54:28;17.70;99.90
25328;DHT22;13279;51.300;12.394;2022-10-31T14:57:02;17.70;99.90
25328;DHT22;13279;51.300;12.394;2022-10-31T14:59:34;17.70;99.90
25328;DHT22;13279;51.300;12.394;2022-10-31T15:02:11;17.70;99.90
25328;DHT22;13279;51.300;12.394;2022-10-31T15:04:41;17.70;99.90
25328;DHT22;13279;51.300;12.394;2022-10-31T15:07:14;17.70;99.90
25328;DHT22;13279;51.300;12.394;2022-10-31T15:09:43;17.60;99.90
25328;DHT22;13279;51.300;12.394;2022-10-31T15:12:23;17.60;99.90
25328;DHT22;13279;51.300;12.394;2022-10-31T15:14:51;17.50;99.90
25328;DHT22;13279;51.300;12.394;2022-10-31T15:17:20;17.40;99.90
25328;DHT22;13279;51.300;12.394;2022-10-31T15:19:47;17.40;99.90
25328;DHT22;13279;51.300;12.394;2022-10-31T15:22:18;17.30;99.90
25328;DHT22;13279;51.300;12.394;2022-10-31T15:24:47;17.30;99.90
25328;DHT22;13279;51.300;12.394;2022-10-31T15:27:23;17.20;99.90
25328;DHT22;13279;51.300;12.394;2022-10-31T15:29:51;17.10;99.90
25328;DHT22;13279;51.300;12.394;2022-10-31T15:32:21;17.10;99.90
25328;DHT22;13279;51.300;12.394;2022-10-31T15:34:50;17.00;99.90
25328;DHT22;13279;51.300;12.394;2022-10-31T15:37:20;17.00;99.90
25328;DHT22;13279;51.300;12.394;2022-10-31T15:39:49;16.90;99.90
25328;DHT22;13279;51.300;12.394;2022-10-31T15:42:20;16.90;99.90
25328;DHT22;13279;51.300;12.394;2022-10-31T15:44:51;16.80;99.90
25328;DHT22;13279;51.300;12.394;2022-10-31T15:47:22;16.70;99.90
25328;DHT22;13279;51.300;12.394;2022-10-31T15:49:52;16.60;99.90
25328;DHT22;13279;51.300;12.394;2022-10-31T15:52:27;16.60;99.90
25328;DHT22;13279;51.300;12.394;2022-10-31T15:54:57;16.60;99.90
25328;DHT22;13279;51.300;12.394;2022-10-31T15:57:26;16.50;99.90
25328;DHT22;13279;51.300;12.394;2022-10-31T15:59:54;16.50;99.90
25328;DHT22;13279;51.300;12.394;2022-10-31T16:02:23;16.40;99.90
25328;DHT22;13279;51.300;12.394;2022-10-31T16:04:54;16.40;99.90
25328;DHT22;13279;51.300;12.394;2022-10-31T16:07:23;16.40;99.90
25328;DHT22;13279;51.300;12.394;2022-10-31T16:09:53;16.40;99.90